createdAt,value
2024-05-09T00:00:39.266Z,2.00
2024-05-09T00:03:46.886Z,2.35
2024-05-09T00:06:51.743Z,2.88
2024-05-09T00:09:50.910Z,2.40
2024-05-09T00:12:55.698Z,1.98
2024-05-09T00:16:01.753Z,2.40
2024-05-09T00:19:00.269Z,2.80
2024-05-09T00:22:06.731Z,2.22
2024-05-09T00:25:06.131Z,2.33
2024-05-09T00:28:10.705Z,2.50
2024-05-09T00:31:23.728Z,2.15
2024-05-09T00:34:21.880Z,2.22
2024-05-09T00:37:26.741Z,1.80
2024-05-09T00:40:35.360Z,2.50
2024-05-09T00:43:44.805Z,2.03
2024-05-09T00:46:44.484Z,2.60
2024-05-09T00:49:49.879Z,2.35
2024-05-09T00:52:55.775Z,2.30
2024-05-09T00:55:56.800Z,2.50
2024-05-09T00:59:03.854Z,3.00
2024-05-09T01:02:02.273Z,2.58
2024-05-09T01:05:06.866Z,3.05
2024-05-09T01:08:06.057Z,2.42
2024-05-09T01:11:10.877Z,2.40
2024-05-09T01:14:09.143Z,2.42
2024-05-09T01:17:15.826Z,2.38
2024-05-09T01:20:20.167Z,2.17
2024-05-09T01:23:33.923Z,2.78
2024-05-09T01:26:32.136Z,2.80
2024-05-09T01:29:36.866Z,2.53
2024-05-09T01:32:35.267Z,2.35
2024-05-09T01:35:46.782Z,2.58
2024-05-09T01:38:46.106Z,3.58
2024-05-09T01:41:50.805Z,2.47
2024-05-09T01:44:56.781Z,2.28
2024-05-09T01:47:56.142Z,2.70
2024-05-09T01:51:00.897Z,2.80
2024-05-09T01:54:06.895Z,2.22
2024-05-09T01:57:05.850Z,2.03
2024-05-09T02:00:07.642Z,2.70
2024-05-09T02:03:16.480Z,2.67
2024-05-09T02:06:22.817Z,2.30
2024-05-09T02:09:29.795Z,2.35
2024-05-09T02:12:28.216Z,2.50
2024-05-09T02:15:33.824Z,2.43
2024-05-09T02:18:32.155Z,2.47
2024-05-09T02:21:40.813Z,3.13
2024-05-09T02:24:46.818Z,2.60
2024-05-09T02:27:45.204Z,2.75
2024-05-09T02:30:49.822Z,3.08
2024-05-09T02:33:55.004Z,2.50
2024-05-09T02:36:56.144Z,2.47
2024-05-09T02:40:00.842Z,2.80
2024-05-09T02:42:59.932Z,2.67
2024-05-09T02:46:04.865Z,2.40
2024-05-09T02:49:04.076Z,2.13
2024-05-09T02:55:14.955Z,2.17
2024-05-09T02:58:13.875Z,2.97
2024-05-09T03:04:17.890Z,2.25
2024-05-09T03:07:22.871Z,2.92
2024-05-09T03:10:25.686Z,2.25
2024-05-09T03:13:33.868Z,3.05
2024-05-09T03:16:38.881Z,2.50
2024-05-09T03:19:38.337Z,2.63
2024-05-09T03:25:57.154Z,2.10
2024-05-09T03:29:01.895Z,2.47
2024-05-09T03:32:01.390Z,2.30
2024-05-09T03:38:19.029Z,2.45
2024-05-09T03:41:23.953Z,2.47
2024-05-09T03:44:22.247Z,2.42
2024-05-09T03:47:27.111Z,2.22
2024-05-09T03:50:35.557Z,2.50
2024-05-09T03:53:41.999Z,2.38
2024-05-09T03:56:40.260Z,2.47
2024-05-09T03:59:45.898Z,2.55
2024-05-09T04:02:54.003Z,2.33
2024-05-09T04:05:53.067Z,2.38
2024-05-09T04:08:57.888Z,2.45
2024-05-09T04:11:57.240Z,2.50
2024-05-09T04:15:01.913Z,2.28
2024-05-09T04:18:01.914Z,4.07
2024-05-09T04:21:09.021Z,10.18
2024-05-09T04:24:08.013Z,15.00
2024-05-09T04:27:12.927Z,24.13
2024-05-09T04:30:26.231Z,24.83
2024-05-09T04:33:41.058Z,21.27
2024-05-09T04:36:41.624Z,14.38
2024-05-09T04:39:46.986Z,6.13
2024-05-09T04:42:54.959Z,5.22
2024-05-09T04:45:53.500Z,4.63
2024-05-09T04:49:00.031Z,5.05
2024-05-09T04:51:59.310Z,5.80
2024-05-09T04:55:04.941Z,6.57
2024-05-09T04:58:12.151Z,6.00
2024-05-09T05:01:17.985Z,5.50
2024-05-09T05:04:16.442Z,4.65
2024-05-09T05:07:21.950Z,4.93
2024-05-09T05:10:25.494Z,4.70
2024-05-09T05:13:36.724Z,4.43
2024-05-09T05:16:36.369Z,3.93
2024-05-09T05:19:42.022Z,4.10
2024-05-09T05:22:43.714Z,3.42
2024-05-09T05:25:50.183Z,4.38
2024-05-09T05:28:55.097Z,4.05
2024-05-09T05:31:54.143Z,3.85
2024-05-09T05:34:59.020Z,3.15
2024-05-09T05:37:57.124Z,3.75
2024-05-09T05:41:02.102Z,3.47
2024-05-09T05:44:00.100Z,3.80
2024-05-09T05:47:04.998Z,4.05
2024-05-09T05:50:07.081Z,3.85
2024-05-09T05:53:16.074Z,3.55
2024-05-09T05:56:21.095Z,4.05
2024-05-09T05:59:19.417Z,4.00
2024-05-09T06:02:24.074Z,4.03
2024-05-09T06:05:29.167Z,3.88
2024-05-09T06:08:35.035Z,3.47
2024-05-09T06:11:33.374Z,4.00
2024-05-09T06:14:39.092Z,3.77
2024-05-09T06:17:38.429Z,3.60
2024-05-09T06:23:47.454Z,4.43
2024-05-09T06:26:42.375Z,3.58
2024-05-09T06:29:27.892Z,4.07
2024-05-09T06:32:13.447Z,3.13
2024-05-09T06:34:59.035Z,2.78
2024-05-09T06:37:44.635Z,2.58
2024-05-09T06:40:37.161Z,2.47
2024-05-09T06:43:24.743Z,2.53
2024-05-09T06:46:10.146Z,2.40
2024-05-09T06:48:57.051Z,2.47
2024-05-09T06:51:42.879Z,2.42
2024-05-09T06:54:28.227Z,2.20
2024-05-09T06:57:13.928Z,2.17
2024-05-09T07:00:00.881Z,2.38
2024-05-09T07:02:46.391Z,2.15
2024-05-09T07:05:31.824Z,2.20
2024-05-09T07:08:18.002Z,2.53
2024-05-09T07:11:04.558Z,2.08
2024-05-09T07:13:50.343Z,2.35
2024-05-09T07:16:36.082Z,2.55
2024-05-09T07:19:21.398Z,2.60
2024-05-09T07:22:07.237Z,2.22
2024-05-09T07:24:53.807Z,3.03
2024-05-09T07:27:39.204Z,2.35
2024-05-09T07:30:32.671Z,2.08
2024-05-09T07:33:27.385Z,2.33
2024-05-09T07:36:19.216Z,2.17
2024-05-09T07:39:05.817Z,2.80
2024-05-09T07:41:51.329Z,2.17
2024-05-09T07:44:36.719Z,1.90
2024-05-09T07:48:56.521Z,2.08
2024-05-09T07:53:37.830Z,2.00
2024-05-09T07:56:23.161Z,2.00
2024-05-09T07:59:09.798Z,1.90
2024-05-09T08:01:55.679Z,2.45
2024-05-09T08:04:41.269Z,1.92
2024-05-09T08:07:26.831Z,2.30
2024-05-09T08:10:15.398Z,1.52
2024-05-09T08:13:04.711Z,1.88
2024-05-09T08:15:51.795Z,1.90
2024-05-09T08:18:37.594Z,2.08
2024-05-09T08:21:23.604Z,2.33
2024-05-09T08:24:10.561Z,1.75
2024-05-09T08:26:55.868Z,1.52
2024-05-09T08:29:41.470Z,1.80
2024-05-09T08:32:27.527Z,1.48
2024-05-09T08:35:12.746Z,1.80
2024-05-09T08:37:58.275Z,2.00
2024-05-09T08:40:43.852Z,2.22
2024-05-09T08:43:30.218Z,2.00
2024-05-09T08:46:18.524Z,1.90
2024-05-09T08:49:04.769Z,1.80
2024-05-09T08:51:50.576Z,2.20
2024-05-09T08:54:36.006Z,1.67
2024-05-09T08:57:22.800Z,2.42
2024-05-09T09:00:12.723Z,1.75
2024-05-09T09:03:02.809Z,2.08
2024-05-09T09:06:12.698Z,1.92
2024-05-09T09:08:59.408Z,2.25
2024-05-09T09:11:45.281Z,2.10
2024-05-09T09:14:30.532Z,1.80
2024-05-09T09:17:16.886Z,2.00
2024-05-09T09:20:02.695Z,2.05
2024-05-09T09:22:48.270Z,2.15
2024-05-09T09:25:33.991Z,2.20
2024-05-09T09:28:23.418Z,3.05
2024-05-09T09:31:09.091Z,2.20
2024-05-09T09:33:54.919Z,1.83
2024-05-09T09:36:42.939Z,3.10
2024-05-09T09:39:31.861Z,2.37
2024-05-09T09:42:18.488Z,2.33
2024-05-09T09:45:05.779Z,2.25
2024-05-09T09:47:57.147Z,2.60
2024-05-09T09:50:43.422Z,1.92
2024-05-09T09:53:29.379Z,2.15
2024-05-09T09:56:18.100Z,2.55
2024-05-09T09:59:04.737Z,2.97
2024-05-09T10:01:50.547Z,2.08
2024-05-09T10:04:36.770Z,2.22
2024-05-09T10:07:23.015Z,2.20
2024-05-09T10:10:11.026Z,2.47
2024-05-09T10:13:07.666Z,2.47
2024-05-09T10:15:54.476Z,1.92
2024-05-09T10:18:41.495Z,2.50
2024-05-09T10:21:27.538Z,2.13
2024-05-09T10:24:12.939Z,2.50
2024-05-09T10:26:58.567Z,2.33
2024-05-09T10:29:58.433Z,2.45
2024-05-09T10:32:44.995Z,3.10
2024-05-09T10:35:32.132Z,1.98
2024-05-09T10:38:18.241Z,1.95
2024-05-09T10:41:04.922Z,2.45
2024-05-09T10:43:51.425Z,1.98
2024-05-09T10:46:37.356Z,2.38
2024-05-09T10:49:23.143Z,1.90
2024-05-09T10:52:08.942Z,2.33
2024-05-09T10:54:54.868Z,2.78
2024-05-09T10:57:41.032Z,2.20
2024-05-09T11:00:36.109Z,2.75
2024-05-09T11:03:25.854Z,3.20
2024-05-09T11:06:11.939Z,2.45
2024-05-09T11:08:57.863Z,2.42
2024-05-09T11:11:43.291Z,2.33
2024-05-09T11:14:28.667Z,2.67
2024-05-09T11:17:14.299Z,2.80
2024-05-09T11:20:00.570Z,2.40
2024-05-09T11:22:46.151Z,2.45
2024-05-09T11:25:33.302Z,2.63
2024-05-09T11:28:19.424Z,2.65
2024-05-09T11:31:10.396Z,2.63
2024-05-09T11:33:56.670Z,2.78
2024-05-09T11:36:41.974Z,2.33
2024-05-09T11:39:27.521Z,2.38
2024-05-09T11:42:13.090Z,2.60
2024-05-09T11:44:58.397Z,2.00
2024-05-09T11:47:44.174Z,2.88
2024-05-09T11:50:34.683Z,2.22
2024-05-09T11:53:21.286Z,2.30
2024-05-09T11:56:07.359Z,2.30
2024-05-09T11:58:53.315Z,2.40
2024-05-09T12:01:38.693Z,2.30
2024-05-09T12:04:24.465Z,2.15
2024-05-09T12:07:12.656Z,1.98
2024-05-09T12:09:58.277Z,2.78
2024-05-09T12:12:44.114Z,2.25
2024-05-09T12:15:29.457Z,2.30
2024-05-09T12:18:15.024Z,1.90
2024-05-09T12:21:01.643Z,2.72
2024-05-09T12:23:47.208Z,2.92
2024-05-09T12:26:33.085Z,2.50
2024-05-09T12:29:18.367Z,2.63
2024-05-09T12:32:03.936Z,2.20
2024-05-09T12:34:49.487Z,2.63
2024-05-09T12:37:34.907Z,2.53
2024-05-09T12:40:26.859Z,2.47
2024-05-09T12:43:19.917Z,2.60
2024-05-09T12:46:05.794Z,2.40
2024-05-09T12:48:51.950Z,2.13
2024-05-09T12:51:38.350Z,2.28
2024-05-09T12:54:23.572Z,2.33
2024-05-09T12:57:09.390Z,2.42
2024-05-09T12:59:55.821Z,2.47
2024-05-09T13:02:41.660Z,2.38
2024-05-09T13:05:27.397Z,1.95
2024-05-09T13:08:16.304Z,2.28
2024-05-09T13:11:01.831Z,2.40
2024-05-09T13:13:47.071Z,2.55
2024-05-09T13:16:32.866Z,2.60
2024-05-09T13:19:18.597Z,2.33
2024-05-09T13:22:04.262Z,2.53
2024-05-09T13:24:49.672Z,2.60
2024-05-09T13:27:35.197Z,2.38
2024-05-09T13:30:29.294Z,2.03
2024-05-09T13:33:29.653Z,2.40
2024-05-09T13:36:21.547Z,2.53
2024-05-09T13:39:07.197Z,2.30
2024-05-09T13:41:52.640Z,2.47
2024-05-09T13:44:38.318Z,2.65
2024-05-09T13:47:24.351Z,2.50
2024-05-09T13:50:14.211Z,2.35
2024-05-09T13:53:07.465Z,2.10
2024-05-09T13:55:54.116Z,2.35
2024-05-09T13:58:39.624Z,2.05
2024-05-09T14:01:25.537Z,2.30
2024-05-09T14:04:11.767Z,1.92
2024-05-09T14:06:57.417Z,2.20
2024-05-09T14:09:42.758Z,2.28
2024-05-09T14:12:28.071Z,2.67
2024-05-09T14:15:13.744Z,3.28
2024-05-09T14:17:59.158Z,2.80
2024-05-09T14:20:44.737Z,2.33
2024-05-09T14:23:30.093Z,2.25
2024-05-09T14:26:15.589Z,2.80
2024-05-09T14:29:01.202Z,2.28
2024-05-09T14:31:53.548Z,2.35
2024-05-09T14:37:31.335Z,2.67
2024-05-09T14:40:30.602Z,2.35
2024-05-09T14:43:22.229Z,2.38
2024-05-09T14:46:07.900Z,2.47
2024-05-09T14:48:53.458Z,2.72
2024-05-09T14:51:40.155Z,2.88
2024-05-09T14:54:25.905Z,2.00
2024-05-09T14:57:11.562Z,2.67
2024-05-09T14:59:57.324Z,2.47
2024-05-09T15:02:42.874Z,1.98
2024-05-09T15:05:28.400Z,2.40
2024-05-09T15:08:14.247Z,2.38
2024-05-09T15:10:59.872Z,2.90
2024-05-09T15:13:45.151Z,3.05
2024-05-09T15:16:31.288Z,2.53
2024-05-09T15:19:17.210Z,3.47
2024-05-09T15:22:03.285Z,3.88
2024-05-09T15:24:48.625Z,2.33
2024-05-09T15:27:34.296Z,2.70
2024-05-09T15:30:28.155Z,2.45
2024-05-09T15:33:17.451Z,2.42
2024-05-09T15:36:10.204Z,2.45
2024-05-09T15:39:03.088Z,2.80
2024-05-09T15:41:56.447Z,17.65
2024-05-09T15:44:42.089Z,16.45
2024-05-09T15:47:28.143Z,5.85
2024-05-09T15:50:20.487Z,3.28
2024-05-09T15:53:14.045Z,2.72
2024-05-09T15:56:28.483Z,2.78
2024-05-09T15:59:16.530Z,4.70
2024-05-09T16:02:11.556Z,2.30
2024-05-09T16:04:57.496Z,2.90
2024-05-09T16:07:42.758Z,2.78
2024-05-09T16:10:32.748Z,2.63
2024-05-09T16:24:11.175Z,2.60
2024-05-09T16:26:57.565Z,2.60
2024-05-09T16:29:44.188Z,2.33
2024-05-09T16:32:29.975Z,3.30
2024-05-09T16:35:16.138Z,2.70
2024-05-09T16:38:03.116Z,2.63
2024-05-09T16:40:48.725Z,2.28
2024-05-09T16:43:34.507Z,3.10
2024-05-09T16:46:20.276Z,2.83
2024-05-09T16:49:05.909Z,3.30
2024-05-09T16:51:51.332Z,4.90
2024-05-09T16:54:37.062Z,3.85
2024-05-09T16:57:22.566Z,2.72
2024-05-09T17:00:14.856Z,2.90
2024-05-09T17:03:07.968Z,2.45
2024-05-09T17:05:53.730Z,2.53
2024-05-09T17:08:40.498Z,3.33
2024-05-09T17:11:26.131Z,2.88
2024-05-09T17:14:11.734Z,2.80
2024-05-09T17:16:57.369Z,2.78
2024-05-09T17:19:44.968Z,3.20
2024-05-09T17:22:31.798Z,2.80
2024-05-09T17:25:17.263Z,3.58
2024-05-09T17:28:07.680Z,3.90
2024-05-09T17:30:53.676Z,3.40
2024-05-09T17:33:39.156Z,3.75
2024-05-09T17:36:25.079Z,3.55
2024-05-09T17:39:10.925Z,3.30
2024-05-09T17:41:56.307Z,4.43
2024-05-09T17:44:41.671Z,3.22
2024-05-09T17:47:27.265Z,3.70
2024-05-09T17:50:17.370Z,3.65
2024-05-09T17:53:10.714Z,3.20
2024-05-09T17:55:56.827Z,3.20
2024-05-09T17:58:42.934Z,3.05
2024-05-09T18:01:28.323Z,3.20
2024-05-09T18:04:14.127Z,3.85
2024-05-09T18:07:00.070Z,3.20
2024-05-09T18:09:45.949Z,3.22
2024-05-09T18:12:31.551Z,3.03
2024-05-09T18:15:17.094Z,2.72
2024-05-09T18:18:03.643Z,3.67
2024-05-09T18:20:49.495Z,3.70
2024-05-09T18:23:34.994Z,3.17
2024-05-09T18:26:20.504Z,2.95
2024-05-09T18:29:06.026Z,3.22
2024-05-09T18:31:51.561Z,3.15
2024-05-09T18:34:37.249Z,2.88
2024-05-09T18:37:23.091Z,3.08
2024-05-09T18:40:12.205Z,3.08
2024-05-09T18:43:06.747Z,2.95
2024-05-09T18:45:53.902Z,3.25
2024-05-09T18:48:39.728Z,2.80
2024-05-09T18:51:25.244Z,2.80
2024-05-09T18:54:10.691Z,3.38
2024-05-09T18:56:56.272Z,2.85
2024-05-09T18:59:41.847Z,3.15
2024-05-09T19:02:27.288Z,3.00
2024-05-09T19:05:13.120Z,2.67
2024-05-09T19:07:58.874Z,3.05
2024-05-09T19:10:47.457Z,3.08
2024-05-09T19:13:33.280Z,3.05
2024-05-09T19:16:19.310Z,3.28
2024-05-09T19:19:05.604Z,3.20
2024-05-09T19:21:51.028Z,3.15
2024-05-09T19:24:36.864Z,3.60
2024-05-09T19:27:22.208Z,2.72
2024-05-09T19:30:17.394Z,2.95
2024-05-09T19:33:12.893Z,4.10
2024-05-09T19:35:59.380Z,3.22
2024-05-09T19:38:45.176Z,2.90
2024-05-09T19:41:30.704Z,2.70
2024-05-09T19:44:16.442Z,2.60
2024-05-09T19:47:02.160Z,2.88
2024-05-09T19:49:47.705Z,2.42
2024-05-09T19:52:33.557Z,3.28
2024-05-09T19:55:19.252Z,3.17
2024-05-09T19:58:07.152Z,2.53
2024-05-09T20:00:53.167Z,2.63
2024-05-09T20:03:38.917Z,3.10
2024-05-09T20:06:25.241Z,2.92
2024-05-09T20:09:10.988Z,2.72
2024-05-09T20:11:56.698Z,2.80
2024-05-09T20:14:42.358Z,3.13
2024-05-09T20:17:28.032Z,2.70
2024-05-09T20:20:20.320Z,2.85
2024-05-09T20:23:14.355Z,3.15
2024-05-09T20:25:59.753Z,2.45
2024-05-09T20:28:46.368Z,2.78
2024-05-09T20:31:31.713Z,3.17
2024-05-09T20:34:17.708Z,3.33
2024-05-09T20:37:10.306Z,2.70
2024-05-09T20:39:56.252Z,2.92
2024-05-09T20:42:44.870Z,2.90
2024-05-09T20:45:30.278Z,3.28
2024-05-09T20:48:15.853Z,3.20
2024-05-09T20:51:01.331Z,3.13
2024-05-09T20:53:47.132Z,2.80
2024-05-09T20:56:32.877Z,3.00
2024-05-09T20:59:18.600Z,2.67
2024-05-09T21:02:04.157Z,2.88
2024-05-09T21:04:49.598Z,2.92
2024-05-09T21:07:35.436Z,2.58
2024-05-09T21:10:22.828Z,2.97
2024-05-09T21:13:08.659Z,2.90
2024-05-09T21:15:54.140Z,2.55
2024-05-09T21:18:39.842Z,3.17
2024-05-09T21:21:25.481Z,2.63
2024-05-09T21:24:10.905Z,3.30
2024-05-09T21:26:56.510Z,2.83
2024-05-09T21:29:41.969Z,3.00
2024-05-09T21:32:27.424Z,3.25
2024-05-09T21:35:12.819Z,2.70
2024-05-09T21:37:58.251Z,2.88
2024-05-09T21:40:44.227Z,3.35
2024-05-09T21:43:31.629Z,2.90
2024-05-09T21:46:17.093Z,3.78
2024-05-09T21:49:03.298Z,3.30
2024-05-09T21:51:49.627Z,3.72
2024-05-09T21:54:35.304Z,3.28
2024-05-09T21:57:21.910Z,2.85
2024-05-09T22:00:25.117Z,3.40
2024-05-09T22:03:18.164Z,3.45
2024-05-09T22:06:03.735Z,4.75
2024-05-09T22:08:49.168Z,3.00
2024-05-09T22:11:35.022Z,3.20
2024-05-09T22:14:21.590Z,3.95
2024-05-09T22:17:07.026Z,3.67
2024-05-09T22:19:53.063Z,3.42
2024-05-09T22:22:38.656Z,3.10
2024-05-09T22:25:26.077Z,3.28
2024-05-09T22:28:15.500Z,3.15
2024-05-09T22:31:00.998Z,3.20
2024-05-09T22:33:48.255Z,3.25
2024-05-09T22:36:34.071Z,3.85
2024-05-09T22:39:19.623Z,3.20
2024-05-09T22:42:05.219Z,3.90
2024-05-09T22:44:50.519Z,3.25
2024-05-09T22:47:35.930Z,3.40
2024-05-09T22:50:26.811Z,3.10
2024-05-09T22:53:16.448Z,3.53
2024-05-09T22:56:01.864Z,3.25
2024-05-09T22:58:47.333Z,3.35
2024-05-09T23:01:33.367Z,3.53
2024-05-09T23:04:51.099Z,3.05
2024-05-09T23:07:38.797Z,3.35
2024-05-09T23:10:31.593Z,2.88
2024-05-09T23:13:21.235Z,3.83
2024-05-09T23:16:07.180Z,3.72
2024-05-09T23:18:52.556Z,3.80
2024-05-09T23:21:40.147Z,3.53
2024-05-09T23:24:25.716Z,3.58
2024-05-09T23:27:11.468Z,3.13
2024-05-09T23:29:57.356Z,3.20
2024-05-09T23:32:42.997Z,3.90
2024-05-09T23:35:28.769Z,3.15
2024-05-09T23:38:14.534Z,3.50
2024-05-09T23:41:00.031Z,3.67
2024-05-09T23:43:45.484Z,3.47
2024-05-09T23:46:31.285Z,3.50
2024-05-09T23:49:16.659Z,3.28
2024-05-09T23:52:02.112Z,3.60
2024-05-09T23:54:47.598Z,3.80
2024-05-09T23:57:33.336Z,3.78
